Main page
METAR-TAF:

METAR-TAF

Airports :

Gombe Lawanti International Airport

Gombe, Nigeria

latitude: 10-18-19N, longitude: 10-54-31E, elevation: 505 m

METAR: missing

Time: 10:13 (09:13 UTC)

Forecast

The report was made 4 hours and 13 minutes ago, at 05:00 UTC
Forecast valid from 13 at 06 UTC to 14 at 12 UTC
Wind 6 kt from the South
Visibility 10 km or more
no clouds below 1500 m and no cumulonimbus

TAF: DNGO 130500Z 1306/1412 18006KT CAVOK

Weather observations and forecasts of more than 4000 airports (METAR and TAF reports).

The available stations are represented by yellow and red dots on the map.

Hover mouse over dot to see the name of the station.

Then click to see weather observations and forecasts.

To change the map : click on the green buttons with a black cross to zoom in, on the green button with a dash to zoom out, or on the green arrows for adjacent maps.


METAR-TAF: